Terminal Aerodrome Forecast
Issued by NWS Sioux Falls, SD

Home | Current Version | Previous Version | Text Only | Print | Product List | Glossary On
Versions: 1 2 3 4 5 6 7 8 9 10 11 12 13 14 15
000
FTUS43 KFSD 241301 AAB
TAFFSD
TAF AMD
KFSD 241301Z 2413/2512 19005KT 6SM BR SCT006 BKN250
     FM241400 20006KT P6SM SCT200
     FM242300 14005KT P6SM SCT150
     FM250500 13007KT P6SM BKN090
     FM250800 12006KT P6SM SHRA VCTS OVC040CB=

USA.gov is the U.S. government's official web portal to all federal, state and local government web resources and services.